sensor_id;sensor_type;location;lat;lon;timestamp;pressure;altitude;pressure_sealevel;temperature;humidity
79709;BME280;69203;48.964;9.118;2023-05-15T00:00:05;98508.41;;;9.46;85.04
79709;BME280;69203;48.964;9.118;2023-05-15T00:01:06;98511.63;;;9.37;86.29
79709;BME280;69203;48.964;9.118;2023-05-15T00:02:06;98502.94;;;9.37;86.33
79709;BME280;69203;48.964;9.118;2023-05-15T00:03:06;98504.72;;;9.36;85.57
79709;BME280;69203;48.964;9.118;2023-05-15T00:04:07;98509.13;;;9.36;85.73
79709;BME280;69203;48.964;9.118;2023-05-15T00:05:07;98491.75;;;9.35;86.23
79709;BME280;69203;48.964;9.118;2023-05-15T00:06:08;98503.69;;;9.39;85.62
79709;BME280;69203;48.964;9.118;2023-05-15T00:07:08;98501.81;;;9.41;86.44
79709;BME280;69203;48.964;9.118;2023-05-15T00:08:09;98502.31;;;9.46;85.92
79709;BME280;69203;48.964;9.118;2023-05-15T00:09:12;98503.78;;;9.50;85.25
79709;BME280;69203;48.964;9.118;2023-05-15T00:10:12;98506.41;;;9.50;85.86
79709;BME280;69203;48.964;9.118;2023-05-15T00:11:13;98505.47;;;9.51;85.46
79709;BME280;69203;48.964;9.118;2023-05-15T00:12:13;98492.47;;;9.49;85.71
79709;BME280;69203;48.964;9.118;2023-05-15T00:13:18;98498.31;;;9.53;86.20
79709;BME280;69203;48.964;9.118;2023-05-15T00:14:19;98502.94;;;9.62;85.39
79709;BME280;69203;48.964;9.118;2023-05-15T00:15:19;98492.66;;;9.59;85.71
79709;BME280;69203;48.964;9.118;2023-05-15T00:16:20;98504.50;;;9.64;85.31
79709;BME280;69203;48.964;9.118;2023-05-15T00:17:20;98495.59;;;9.67;85.12
79709;BME280;69203;48.964;9.118;2023-05-15T00:18:21;98491.41;;;9.64;85.30
79709;BME280;69203;48.964;9.118;2023-05-15T00:19:22;98494.13;;;9.75;85.46
79709;BME280;69203;48.964;9.118;2023-05-15T00:20:22;98499.25;;;9.77;85.03
79709;BME280;69203;48.964;9.118;2023-05-15T00:21:22;98501.13;;;9.75;84.91
79709;BME280;69203;48.964;9.118;2023-05-15T00:22:23;98504.88;;;9.84;84.93
79709;BME280;69203;48.964;9.118;2023-05-15T00:23:24;98498.94;;;9.82;85.74
79709;BME280;69203;48.964;9.118;2023-05-15T00:24:24;98500.81;;;9.80;84.64
79709;BME280;69203;48.964;9.118;2023-05-15T00:25:24;98490.31;;;9.92;84.78
79709;BME280;69203;48.964;9.118;2023-05-15T00:26:25;98492.00;;;9.93;84.91
79709;BME280;69203;48.964;9.118;2023-05-15T00:27:25;98493.88;;;9.91;84.40
79709;BME280;69203;48.964;9.118;2023-05-15T00:28:27;98495.56;;;9.92;85.00
79709;BME280;69203;48.964;9.118;2023-05-15T00:29:27;98496.28;;;9.94;84.60
79709;BME280;69203;48.964;9.118;2023-05-15T00:30:27;98499.53;;;9.98;83.89
79709;BME280;69203;48.964;9.118;2023-05-15T00:31:28;98486.75;;;9.93;83.85
79709;BME280;69203;48.964;9.118;2023-05-15T00:32:28;98499.03;;;9.93;84.28
79709;BME280;69203;48.964;9.118;2023-05-15T00:33:29;98493.66;;;9.94;84.28
79709;BME280;69203;48.964;9.118;2023-05-15T00:34:30;98488.63;;;9.91;84.51
79709;BME280;69203;48.964;9.118;2023-05-15T00:35:31;98504.47;;;9.90;83.93
79709;BME280;69203;48.964;9.118;2023-05-15T00:36:31;98499.88;;;9.81;84.84
79709;BME280;69203;48.964;9.118;2023-05-15T00:37:32;98496.97;;;9.72;84.80
79709;BME280;69203;48.964;9.118;2023-05-15T00:38:32;98500.28;;;9.74;85.66
79709;BME280;69203;48.964;9.118;2023-05-15T00:39:33;98496.84;;;9.74;85.47
79709;BME280;69203;48.964;9.118;2023-05-15T00:40:33;98497.56;;;9.76;85.29
79709;BME280;69203;48.964;9.118;2023-05-15T00:41:36;98498.19;;;9.80;85.64
79709;BME280;69203;48.964;9.118;2023-05-15T00:42:37;98502.41;;;9.82;85.10
79709;BME280;69203;48.964;9.118;2023-05-15T00:43:39;98499.13;;;9.79;84.90
79709;BME280;69203;48.964;9.118;2023-05-15T00:44:43;98500.19;;;9.76;85.55
79709;BME280;69203;48.964;9.118;2023-05-15T00:45:44;98498.31;;;9.78;85.45
79709;BME280;69203;48.964;9.118;2023-05-15T00:46:45;98503.56;;;9.78;85.12
79709;BME280;69203;48.964;9.118;2023-05-15T00:47:46;98498.19;;;9.80;84.87
79709;BME280;69203;48.964;9.118;2023-05-15T00:48:49;98497.78;;;9.73;85.39
79709;BME280;69203;48.964;9.118;2023-05-15T00:49:50;98503.03;;;9.73;85.67
79709;BME280;69203;48.964;9.118;2023-05-15T00:50:52;98505.13;;;9.81;84.87
79709;BME280;69203;48.964;9.118;2023-05-15T00:51:52;98496.00;;;9.86;85.05
79709;BME280;69203;48.964;9.118;2023-05-15T00:52:54;98491.59;;;9.74;84.73
79709;BME280;69203;48.964;9.118;2023-05-15T00:53:54;98503.56;;;9.78;85.08
79709;BME280;69203;48.964;9.118;2023-05-15T00:54:55;98499.47;;;9.74;85.78
79709;BME280;69203;48.964;9.118;2023-05-15T00:55:57;98498.09;;;9.81;85.11
79709;BME280;69203;48.964;9.118;2023-05-15T00:56:58;98497.34;;;9.79;84.89
79709;BME280;69203;48.964;9.118;2023-05-15T00:58:00;98501.75;;;9.79;84.34
79709;BME280;69203;48.964;9.118;2023-05-15T00:59:02;98499.34;;;9.75;85.00
79709;BME280;69203;48.964;9.118;2023-05-15T01:00:03;98494.81;;;9.90;84.00
79709;BME280;69203;48.964;9.118;2023-05-15T01:01:09;98503.84;;;9.99;83.89
79709;BME280;69203;48.964;9.118;2023-05-15T01:02:12;98496.81;;;9.87;83.42
79709;BME280;69203;48.964;9.118;2023-05-15T01:03:12;98501.84;;;9.90;83.80
79709;BME280;69203;48.964;9.118;2023-05-15T01:04:12;98501.84;;;9.90;83.99
79709;BME280;69203;48.964;9.118;2023-05-15T01:05:13;98501.00;;;9.89;83.15
79709;BME280;69203;48.964;9.118;2023-05-15T01:06:13;98495.22;;;9.97;83.60
79709;BME280;69203;48.964;9.118;2023-05-15T01:07:14;98501.50;;;9.94;83.11
79709;BME280;69203;48.964;9.118;2023-05-15T01:08:43;98500.06;;;9.90;83.48
79709;BME280;69203;48.964;9.118;2023-05-15T01:09:46;98491.50;;;9.88;83.04
79709;BME280;69203;48.964;9.118;2023-05-15T01:10:49;98507.09;;;9.90;83.52
79709;BME280;69203;48.964;9.118;2023-05-15T01:11:53;98499.41;;;9.99;83.53
79709;BME280;69203;48.964;9.118;2023-05-15T01:12:54;98499.09;;;10.04;82.48
79709;BME280;69203;48.964;9.118;2023-05-15T01:13:56;98499.53;;;9.98;82.82
79709;BME280;69203;48.964;9.118;2023-05-15T01:14:56;98496.28;;;9.94;83.21
79709;BME280;69203;48.964;9.118;2023-05-15T01:15:57;98496.16;;;9.96;82.70
79709;BME280;69203;48.964;9.118;2023-05-15T01:16:58;98508.13;;;10.00;82.79
79709;BME280;69203;48.964;9.118;2023-05-15T01:17:58;98502.66;;;10.03;82.55
79709;BME280;69203;48.964;9.118;2023-05-15T01:18:59;98507.28;;;9.99;83.09
79709;BME280;69203;48.964;9.118;2023-05-15T01:20:00;98497.75;;;9.98;82.45
79709;BME280;69203;48.964;9.118;2023-05-15T01:25:02;98499.63;;;9.96;82.75
79709;BME280;69203;48.964;9.118;2023-05-15T01:27:49;98505.34;;;9.78;83.78
79709;BME280;69203;48.964;9.118;2023-05-15T01:28:58;98506.19;;;9.78;83.37
79709;BME280;69203;48.964;9.118;2023-05-15T01:31:21;98500.81;;;9.80;83.06
79709;BME280;69203;48.964;9.118;2023-05-15T01:32:28;98497.78;;;9.73;83.20
79709;BME280;69203;48.964;9.118;2023-05-15T01:33:37;98500.63;;;9.83;83.66
79709;BME280;69203;48.964;9.118;2023-05-15T01:36:13;98497.91;;;9.71;84.50
79709;BME280;69203;48.964;9.118;2023-05-15T01:37:17;98497.91;;;9.71;84.00
79709;BME280;69203;48.964;9.118;2023-05-15T01:38:34;98499.78;;;9.69;84.41
79709;BME280;69203;48.964;9.118;2023-05-15T01:39:37;98501.38;;;9.72;84.63
79709;BME280;69203;48.964;9.118;2023-05-15T01:40:42;98503.25;;;9.70;85.13
79709;BME280;69203;48.964;9.118;2023-05-15T01:43:11;98497.25;;;9.68;84.13
79709;BME280;69203;48.964;9.118;2023-05-15T01:44:24;98497.25;;;9.68;84.41
79709;BME280;69203;48.964;9.118;2023-05-15T01:45:27;98492.53;;;9.73;84.50
79709;BME280;69203;48.964;9.118;2023-05-15T01:46:30;98491.25;;;9.79;83.56
79709;BME280;69203;48.964;9.118;2023-05-15T01:47:37;98499.78;;;9.69;83.90
79709;BME280;69203;48.964;9.118;2023-05-15T01:48:39;98496.00;;;9.73;83.93
79709;BME280;69203;48.964;9.118;2023-05-15T01:49:42;98489.53;;;9.66;83.17
79709;BME280;69203;48.964;9.118;2023-05-15T01:50:44;98491.41;;;9.64;83.55
79709;BME280;69203;48.964;9.118;2023-05-15T01:51:48;98489.94;;;9.60;83.76
79709;BME280;69203;48.964;9.118;2023-05-15T01:52:53;98494.56;;;9.57;83.65
79709;BME280;69203;48.964;9.118;2023-05-15T01:53:56;98493.81;;;9.55;84.47
79709;BME280;69203;48.964;9.118;2023-05-15T01:55:00;98488.47;;;9.44;84.13
79709;BME280;69203;48.964;9.118;2023-05-15T01:56:02;98497.28;;;9.55;84.11
79709;BME280;69203;48.964;9.118;2023-05-15T01:57:04;98494.84;;;9.52;84.33
79709;BME280;69203;48.964;9.118;2023-05-15T01:58:05;98498.63;;;9.48;84.02
79709;BME280;69203;48.964;9.118;2023-05-15T01:59:06;98501.06;;;9.51;84.55
79709;BME280;69203;48.964;9.118;2023-05-15T02:00:09;98498.44;;;9.51;83.98
79709;BME280;69203;48.964;9.118;2023-05-15T02:01:10;98494.84;;;9.52;84.77
79709;BME280;69203;48.964;9.118;2023-05-15T02:02:12;98494.44;;;9.58;83.74
79709;BME280;69203;48.964;9.118;2023-05-15T02:03:14;98500.41;;;9.48;85.30
79709;BME280;69203;48.964;9.118;2023-05-15T02:04:15;98494.66;;;9.43;84.86
79709;BME280;69203;48.964;9.118;2023-05-15T02:05:17;98495.72;;;9.40;84.99
79709;BME280;69203;48.964;9.118;2023-05-15T02:06:18;98491.00;;;9.32;85.38
79709;BME280;69203;48.964;9.118;2023-05-15T02:07:19;98485.56;;;9.36;85.63
79709;BME280;69203;48.964;9.118;2023-05-15T02:08:20;98497.09;;;9.46;85.71
79709;BME280;69203;48.964;9.118;2023-05-15T02:09:22;98496.97;;;9.47;85.46
79709;BME280;69203;48.964;9.118;2023-05-15T02:10:24;98491.72;;;9.47;84.97
79709;BME280;69203;48.964;9.118;2023-05-15T02:11:25;98499.25;;;9.52;85.05
79709;BME280;69203;48.964;9.118;2023-05-15T02:12:25;98498.13;;;9.56;84.66
79709;BME280;69203;48.964;9.118;2023-05-15T02:13:28;98489.31;;;9.57;84.52
79709;BME280;69203;48.964;9.118;2023-05-15T02:14:30;98492.47;;;9.62;84.66
79709;BME280;69203;48.964;9.118;2023-05-15T02:15:31;98489.94;;;9.60;83.58
79709;BME280;69203;48.964;9.118;2023-05-15T02:16:32;98493.28;;;9.75;84.19
79709;BME280;69203;48.964;9.118;2023-05-15T02:17:32;98495.47;;;9.81;83.41
79709;BME280;69203;48.964;9.118;2023-05-15T02:18:32;98494.84;;;9.78;82.85
79709;BME280;69203;48.964;9.118;2023-05-15T02:19:33;98493.59;;;9.83;83.56
79709;BME280;69203;48.964;9.118;2023-05-15T02:20:34;98488.25;;;9.72;82.80
79709;BME280;69203;48.964;9.118;2023-05-15T02:21:34;98491.25;;;9.79;82.90
79709;BME280;69203;48.964;9.118;2023-05-15T02:22:35;98484.56;;;9.74;83.28
79709;BME280;69203;48.964;9.118;2023-05-15T02:23:35;98492.75;;;9.83;82.85
79709;BME280;69203;48.964;9.118;2023-05-15T02:24:35;98494.63;;;9.81;83.14
79709;BME280;69203;48.964;9.118;2023-05-15T02:26:11;98496.94;;;9.85;82.42
79709;BME280;69203;48.964;9.118;2023-05-15T02:27:45;98488.66;;;9.79;83.11
79709;BME280;69203;48.964;9.118;2023-05-15T02:34:17;98492.94;;;9.80;84.08
79709;BME280;69203;48.964;9.118;2023-05-15T02:35:34;98499.97;;;9.79;84.64
79709;BME280;69203;48.964;9.118;2023-05-15T02:36:39;98497.25;;;9.81;83.42
79709;BME280;69203;48.964;9.118;2023-05-15T02:37:43;98492.53;;;9.73;85.02
79709;BME280;69203;48.964;9.118;2023-05-15T02:38:51;98494.03;;;9.77;83.67
79709;BME280;69203;48.964;9.118;2023-05-15T02:39:52;98488.13;;;9.73;84.52
79709;BME280;69203;48.964;9.118;2023-05-15T02:40:54;98492.25;;;9.78;83.52
79709;BME280;69203;48.964;9.118;2023-05-15T02:41:56;98487.84;;;9.78;84.55
79709;BME280;69203;48.964;9.118;2023-05-15T02:42:59;98491.41;;;9.77;83.98
79709;BME280;69203;48.964;9.118;2023-05-15T02:44:00;98487.09;;;9.76;84.12
79709;BME280;69203;48.964;9.118;2023-05-15T02:45:01;98498.31;;;9.78;83.83
79709;BME280;69203;48.964;9.118;2023-05-15T02:46:02;98490.22;;;9.68;84.29
79709;BME280;69203;48.964;9.118;2023-05-15T02:47:04;98491.81;;;9.71;83.40
79709;BME280;69203;48.964;9.118;2023-05-15T02:48:05;98480.91;;;9.64;83.78
79709;BME280;69203;48.964;9.118;2023-05-15T02:49:06;98488.69;;;9.66;83.85
79709;BME280;69203;48.964;9.118;2023-05-15T02:50:08;98481.00;;;9.63;83.73
79709;BME280;69203;48.964;9.118;2023-05-15T02:51:09;98485.50;;;9.73;83.67
79709;BME280;69203;48.964;9.118;2023-05-15T02:52:09;98494.84;;;9.78;82.81
79709;BME280;69203;48.964;9.118;2023-05-15T02:53:10;98496.31;;;9.82;82.47
79709;BME280;69203;48.964;9.118;2023-05-15T02:54:14;98496.09;;;9.85;83.35
79709;BME280;69203;48.964;9.118;2023-05-15T02:55:14;98493.78;;;9.80;83.72
79709;BME280;69203;48.964;9.118;2023-05-15T02:56:14;98497.03;;;9.84;83.07
79709;BME280;69203;48.964;9.118;2023-05-15T02:57:15;98499.78;;;9.82;83.89
79709;BME280;69203;48.964;9.118;2023-05-15T02:58:15;98498.09;;;9.81;83.16
79709;BME280;69203;48.964;9.118;2023-05-15T02:59:16;98496.31;;;9.82;83.76
79709;BME280;69203;48.964;9.118;2023-05-15T03:00:19;98495.38;;;9.83;83.69
79709;BME280;69203;48.964;9.118;2023-05-15T03:01:19;98496.31;;;9.82;84.09
79709;BME280;69203;48.964;9.118;2023-05-15T03:02:20;98505.84;;;9.83;83.55
79709;BME280;69203;48.964;9.118;2023-05-15T03:03:20;98506.06;;;9.80;84.14
79709;BME280;69203;48.964;9.118;2023-05-15T03:04:21;98495.06;;;9.74;84.14
79709;BME280;69203;48.964;9.118;2023-05-15T03:05:21;98500.72;;;9.81;84.22
79709;BME280;69203;48.964;9.118;2023-05-15T03:06:21;98500.09;;;9.78;83.87
79709;BME280;69203;48.964;9.118;2023-05-15T03:07:22;98498.19;;;9.80;84.41
79709;BME280;69203;48.964;9.118;2023-05-15T03:08:22;98498.31;;;9.78;83.71
79709;BME280;69203;48.964;9.118;2023-05-15T03:09:22;98490.75;;;9.73;83.86
79709;BME280;69203;48.964;9.118;2023-05-15T03:10:24;98493.88;;;9.79;84.09
79709;BME280;69203;48.964;9.118;2023-05-15T03:11:26;98485.50;;;9.73;84.29
79709;BME280;69203;48.964;9.118;2023-05-15T03:12:27;98495.38;;;9.70;84.38
79709;BME280;69203;48.964;9.118;2023-05-15T03:13:27;98492.44;;;9.74;84.89
79709;BME280;69203;48.964;9.118;2023-05-15T03:14:27;98488.88;;;9.75;83.55
79709;BME280;69203;48.964;9.118;2023-05-15T03:15:28;98500.09;;;9.78;84.34
79709;BME280;69203;48.964;9.118;2023-05-15T03:16:30;98493.28;;;9.75;84.30
79709;BME280;69203;48.964;9.118;2023-05-15T03:17:30;98489.72;;;9.76;83.93
79709;BME280;69203;48.964;9.118;2023-05-15T03:18:31;98490.13;;;9.83;84.50
79709;BME280;69203;48.964;9.118;2023-05-15T03:19:31;98499.44;;;9.87;83.92
79709;BME280;69203;48.964;9.118;2023-05-15T03:20:31;98502.88;;;10.00;84.47
79709;BME280;69203;48.964;9.118;2023-05-15T03:21:32;98503.84;;;9.99;84.56
79709;BME280;69203;48.964;9.118;2023-05-15T03:22:34;98493.44;;;9.97;83.54
79709;BME280;69203;48.964;9.118;2023-05-15T03:23:34;98483.38;;;10.04;83.69
79709;BME280;69203;48.964;9.118;2023-05-15T03:24:34;98498.09;;;9.94;83.02
79709;BME280;69203;48.964;9.118;2023-05-15T03:25:35;98498.88;;;10.07;83.43
79709;BME280;69203;48.964;9.118;2023-05-15T03:26:35;98496.88;;;10.10;83.11
79709;BME280;69203;48.964;9.118;2023-05-15T03:27:37;98486.09;;;10.02;83.16
79709;BME280;69203;48.964;9.118;2023-05-15T03:28:37;98487.97;;;10.00;83.09
79709;BME280;69203;48.964;9.118;2023-05-15T03:29:38;98490.22;;;9.94;83.70
79709;BME280;69203;48.964;9.118;2023-05-15T03:30:38;98489.66;;;10.01;83.28
79709;BME280;69203;48.964;9.118;2023-05-15T03:31:38;98491.34;;;10.02;83.51
79709;BME280;69203;48.964;9.118;2023-05-15T03:32:39;98488.09;;;9.99;84.30
79709;BME280;69203;48.964;9.118;2023-05-15T03:33:39;98491.94;;;10.06;83.25
79709;BME280;69203;48.964;9.118;2023-05-15T03:34:40;98488.91;;;10.12;83.60
79709;BME280;69203;48.964;9.118;2023-05-15T03:35:40;98482.59;;;10.14;83.13
79709;BME280;69203;48.964;9.118;2023-05-15T03:36:40;98490.06;;;10.08;83.03
79709;BME280;69203;48.964;9.118;2023-05-15T03:37:41;98483.56;;;10.13;83.79
79709;BME280;69203;48.964;9.118;2023-05-15T03:38:41;98481.78;;;10.14;83.50
79709;BME280;69203;48.964;9.118;2023-05-15T03:39:43;98487.22;;;10.24;83.65
79709;BME280;69203;48.964;9.118;2023-05-15T03:40:43;98486.06;;;10.15;83.66
79709;BME280;69203;48.964;9.118;2023-05-15T03:41:44;98474.88;;;10.00;84.19
79709;BME280;69203;48.964;9.118;2023-05-15T03:42:44;98484.50;;;10.12;84.18
79709;BME280;69203;48.964;9.118;2023-05-15T03:43:44;98482.91;;;10.10;83.68
79709;BME280;69203;48.964;9.118;2023-05-15T03:44:45;98482.19;;;10.08;84.00
79709;BME280;69203;48.964;9.118;2023-05-15T03:45:45;98484.81;;;10.08;84.06
79709;BME280;69203;48.964;9.118;2023-05-15T03:46:46;98482.09;;;10.09;84.12
79709;BME280;69203;48.964;9.118;2023-05-15T03:47:46;98489.09;;;10.22;83.94
79709;BME280;69203;48.964;9.118;2023-05-15T03:48:47;98488.16;;;10.23;83.73
79709;BME280;69203;48.964;9.118;2023-05-15T03:49:47;98493.22;;;10.26;83.29
79709;BME280;69203;48.964;9.118;2023-05-15T03:50:48;98485.53;;;10.23;83.18
79709;BME280;69203;48.964;9.118;2023-05-15T03:51:48;98492.03;;;10.30;83.74
79709;BME280;69203;48.964;9.118;2023-05-15T03:52:48;98491.28;;;10.28;83.42
79709;BME280;69203;48.964;9.118;2023-05-15T03:53:49;98496.06;;;10.46;82.56
79709;BME280;69203;48.964;9.118;2023-05-15T03:54:49;98488.28;;;10.45;82.96
79709;BME280;69203;48.964;9.118;2023-05-15T03:55:50;98500.34;;;10.47;82.85
79709;BME280;69203;48.964;9.118;2023-05-15T03:56:50;98494.22;;;10.36;83.35
79709;BME280;69203;48.964;9.118;2023-05-15T03:57:51;98499.56;;;10.34;82.77
79709;BME280;69203;48.964;9.118;2023-05-15T03:58:51;98500.03;;;10.52;82.71
79709;BME280;69203;48.964;9.118;2023-05-15T03:59:52;98491.41;;;10.50;81.77
79709;BME280;69203;48.964;9.118;2023-05-15T04:00:52;98489.41;;;10.53;81.85
79709;BME280;69203;48.964;9.118;2023-05-15T04:01:53;98495.50;;;10.54;82.40
79709;BME280;69203;48.964;9.118;2023-05-15T04:02:54;98494.97;;;10.49;82.50
79709;BME280;69203;48.964;9.118;2023-05-15T04:03:54;98496.81;;;10.59;82.73
79709;BME280;69203;48.964;9.118;2023-05-15T04:04:55;98495.28;;;10.57;82.34
79709;BME280;69203;48.964;9.118;2023-05-15T04:05:55;98491.69;;;10.58;82.22
79709;BME280;69203;48.964;9.118;2023-05-15T04:06:55;98497.31;;;10.65;82.13
79709;BME280;69203;48.964;9.118;2023-05-15T04:07:56;98493.06;;;10.75;82.41
79709;BME280;69203;48.964;9.118;2023-05-15T04:08:56;98500.91;;;10.64;82.06
79709;BME280;69203;48.964;9.118;2023-05-15T04:09:56;98480.47;;;10.56;82.00
79709;BME280;69203;48.964;9.118;2023-05-15T04:11:00;98491.53;;;10.72;81.88
79709;BME280;69203;48.964;9.118;2023-05-15T04:12:00;98492.97;;;10.76;82.01
79709;BME280;69203;48.964;9.118;2023-05-15T04:13:03;98494.66;;;10.77;81.35
79709;BME280;69203;48.964;9.118;2023-05-15T04:14:04;98501.28;;;10.94;81.80
79709;BME280;69203;48.964;9.118;2023-05-15T04:15:18;98484.53;;;10.84;81.31
79709;BME280;69203;48.964;9.118;2023-05-15T04:16:19;98499.81;;;10.90;81.09
79709;BME280;69203;48.964;9.118;2023-05-15T04:17:19;98499.63;;;11.04;81.38
79709;BME280;69203;48.964;9.118;2023-05-15T04:18:19;98489.69;;;10.96;81.02
79709;BME280;69203;48.964;9.118;2023-05-15T04:19:20;98497.56;;;10.96;81.00
79709;BME280;69203;48.964;9.118;2023-05-15T04:20:22;98495.53;;;11.00;81.18
79709;BME280;69203;48.964;9.118;2023-05-15T04:21:23;98496.03;;;10.94;81.01
79709;BME280;69203;48.964;9.118;2023-05-15T04:22:23;98493.94;;;11.10;81.17
79709;BME280;69203;48.964;9.118;2023-05-15T04:23:24;98494.03;;;11.09;80.66
79709;BME280;69203;48.964;9.118;2023-05-15T04:24:24;98505.56;;;11.30;80.80
79709;BME280;69203;48.964;9.118;2023-05-15T04:25:26;98492.78;;;11.36;80.49
79709;BME280;69203;48.964;9.118;2023-05-15T04:26:27;98496.84;;;11.40;81.07
79709;BME280;69203;48.964;9.118;2023-05-15T04:27:27;98500.53;;;11.38;80.76
79709;BME280;69203;48.964;9.118;2023-05-15T04:28:27;98497.56;;;11.31;80.67
79709;BME280;69203;48.964;9.118;2023-05-15T04:29:28;98494.34;;;11.39;80.72
79709;BME280;69203;48.964;9.118;2023-05-15T04:30:28;98506.06;;;11.46;80.45
79709;BME280;69203;48.964;9.118;2023-05-15T04:31:29;98497.47;;;11.55;79.96
79709;BME280;69203;48.964;9.118;2023-05-15T04:32:30;98495.66;;;11.44;79.22
79709;BME280;69203;48.964;9.118;2023-05-15T04:33:32;98490.53;;;11.65;79.55
79709;BME280;69203;48.964;9.118;2023-05-15T04:34:33;98493.06;;;11.67;79.38
79709;BME280;69203;48.964;9.118;2023-05-15T04:35:33;98491.88;;;11.82;79.40
79709;BME280;69203;48.964;9.118;2023-05-15T04:36:34;98496.41;;;11.91;79.33
79709;BME280;69203;48.964;9.118;2023-05-15T04:37:35;98481.59;;;11.90;79.06
79709;BME280;69203;48.964;9.118;2023-05-15T04:38:36;98491.50;;;11.98;78.89
79709;BME280;69203;48.964;9.118;2023-05-15T04:39:36;98489.00;;;12.07;79.05
79709;BME280;69203;48.964;9.118;2023-05-15T04:40:37;98482.78;;;11.97;77.75
79709;BME280;69203;48.964;9.118;2023-05-15T04:41:37;98478.09;;;12.12;78.85
79709;BME280;69203;48.964;9.118;2023-05-15T04:42:37;98485.84;;;12.24;78.84
79709;BME280;69203;48.964;9.118;2023-05-15T04:43:38;98491.34;;;12.21;77.94
79709;BME280;69203;48.964;9.118;2023-05-15T04:44:39;98484.16;;;12.35;78.46
79709;BME280;69203;48.964;9.118;2023-05-15T04:45:39;98481.28;;;12.38;78.04
79709;BME280;69203;48.964;9.118;2023-05-15T04:46:40;98489.88;;;12.40;77.59
79709;BME280;69203;48.964;9.118;2023-05-15T04:47:40;98486.41;;;12.39;77.78
79709;BME280;69203;48.964;9.118;2023-05-15T04:48:41;98493.72;;;12.47;78.12
79709;BME280;69203;48.964;9.118;2023-05-15T04:49:41;98491.31;;;12.44;77.71
79709;BME280;69203;48.964;9.118;2023-05-15T04:50:41;98483.50;;;12.53;77.17
79709;BME280;69203;48.964;9.118;2023-05-15T04:51:42;98489.22;;;12.58;77.43
79709;BME280;69203;48.964;9.118;2023-05-15T04:52:42;98484.91;;;12.68;77.62
79709;BME280;69203;48.964;9.118;2023-05-15T04:53:42;98480.66;;;12.77;77.36
79709;BME280;69203;48.964;9.118;2023-05-15T04:54:43;98479.06;;;12.86;76.78
79709;BME280;69203;48.964;9.118;2023-05-15T04:55:43;98495.25;;;12.81;75.55
79709;BME280;69203;48.964;9.118;2023-05-15T04:56:44;98484.34;;;12.86;76.56
79709;BME280;69203;48.964;9.118;2023-05-15T04:57:45;98489.44;;;12.98;76.19
79709;BME280;69203;48.964;9.118;2023-05-15T04:58:47;98484.56;;;12.94;75.41
79709;BME280;69203;48.964;9.118;2023-05-15T04:59:47;98491.63;;;12.93;75.38
79709;BME280;69203;48.964;9.118;2023-05-15T05:00:47;98491.63;;;12.93;75.71
79709;BME280;69203;48.964;9.118;2023-05-15T05:01:48;98491.63;;;12.61;75.31
79709;BME280;69203;48.964;9.118;2023-05-15T05:02:48;98487.81;;;12.86;76.04
79709;BME280;69203;48.964;9.118;2023-05-15T05:03:49;98489.56;;;12.97;75.25
79709;BME280;69203;48.964;9.118;2023-05-15T05:04:49;98487.81;;;13.07;75.00
79709;BME280;69203;48.964;9.118;2023-05-15T05:05:55;98487.97;;;13.05;75.04
79709;BME280;69203;48.964;9.118;2023-05-15T05:06:55;98490.34;;;13.08;74.94
79709;BME280;69203;48.964;9.118;2023-05-15T05:07:56;98495.81;;;13.17;75.60
79709;BME280;69203;48.964;9.118;2023-05-15T05:08:57;98495.59;;;13.20;75.17
79709;BME280;69203;48.964;9.118;2023-05-15T05:10:06;98494.75;;;13.19;74.94
79709;BME280;69203;48.964;9.118;2023-05-15T05:11:10;98502.72;;;13.29;75.29
79709;BME280;69203;48.964;9.118;2023-05-15T05:12:10;98497.56;;;13.27;75.31
79709;BME280;69203;48.964;9.118;2023-05-15T05:13:11;98498.66;;;13.25;75.20
79709;BME280;69203;48.964;9.118;2023-05-15T05:14:18;98488.25;;;13.23;74.79
79709;BME280;69203;48.964;9.118;2023-05-15T05:15:30;98487.56;;;13.21;75.11
79709;BME280;69203;48.964;9.118;2023-05-15T05:16:33;98502.72;;;13.29;74.81
79709;BME280;69203;48.964;9.118;2023-05-15T05:17:33;98500.66;;;13.32;75.38
79709;BME280;69203;48.964;9.118;2023-05-15T05:18:34;98488.19;;;13.34;74.83
79709;BME280;69203;48.964;9.118;2023-05-15T05:19:37;98495.91;;;13.47;75.14
79709;BME280;69203;48.964;9.118;2023-05-15T05:20:37;98499.41;;;13.57;74.45
79709;BME280;69203;48.964;9.118;2023-05-15T05:21:38;98492.84;;;13.72;74.32
79709;BME280;69203;48.964;9.118;2023-05-15T05:22:38;98501.53;;;13.93;74.01
79709;BME280;69203;48.964;9.118;2023-05-15T05:23:42;98500.50;;;14.15;72.83
79709;BME280;69203;48.964;9.118;2023-05-15T05:24:46;98476.63;;;14.26;72.00
79709;BME280;69203;48.964;9.118;2023-05-15T05:25:46;98507.00;;;14.51;71.47
79709;BME280;69203;48.964;9.118;2023-05-15T05:28:21;98475.16;;;14.43;70.51
79709;BME280;69203;48.964;9.118;2023-05-15T05:29:23;98483.47;;;14.38;70.85
79709;BME280;69203;48.964;9.118;2023-05-15T05:30:33;98471.34;;;14.26;71.03
79709;BME280;69203;48.964;9.118;2023-05-15T05:31:36;98444.63;;;14.10;70.33
79709;BME280;69203;48.964;9.118;2023-05-15T05:32:37;98482.44;;;14.20;71.51
79709;BME280;69203;48.964;9.118;2023-05-15T05:33:37;98493.31;;;14.27;70.97
79709;BME280;69203;48.964;9.118;2023-05-15T05:34:37;98497.16;;;14.23;71.38
79709;BME280;69203;48.964;9.118;2023-05-15T05:35:40;98503.72;;;14.28;71.49
79709;BME280;69203;48.964;9.118;2023-05-15T05:36:41;98503.16;;;14.25;71.71
79709;BME280;69203;48.964;9.118;2023-05-15T05:37:41;98498.78;;;14.45;70.92
79709;BME280;69203;48.964;9.118;2023-05-15T05:38:41;98499.81;;;14.72;70.43
79709;BME280;69203;48.964;9.118;2023-05-15T05:39:42;98504.94;;;15.12;69.53
79709;BME280;69203;48.964;9.118;2023-05-15T05:40:45;98502.25;;;15.51;69.04
79709;BME280;69203;48.964;9.118;2023-05-15T05:42:05;98498.56;;;16.08;66.31
79709;BME280;69203;48.964;9.118;2023-05-15T05:43:08;98500.06;;;16.47;64.57
79709;BME280;69203;48.964;9.118;2023-05-15T05:44:28;98501.09;;;17.00;63.24
79709;BME280;69203;48.964;9.118;2023-05-15T05:45:38;98498.00;;;17.48;62.43
79709;BME280;69203;48.964;9.118;2023-05-15T05:46:38;98489.53;;;17.70;60.40